createdAt,value
2019-04-20T00:00:44.338Z,1027.87
2019-04-20T00:01:38.936Z,1027.86
2019-04-20T00:02:39.896Z,1027.83
2019-04-20T00:03:43.201Z,1027.85
2019-04-20T00:04:39.086Z,1027.83
2019-04-20T00:05:39.251Z,1027.83
2019-04-20T00:06:46.083Z,1027.83
2019-04-20T00:07:39.702Z,1027.83
2019-04-20T00:08:41.174Z,1027.84
2019-04-20T00:09:41.663Z,1027.75
2019-04-20T00:10:48.731Z,1027.79
2019-04-20T00:11:50.712Z,1027.78
2019-04-20T00:12:54.559Z,1027.76
2019-04-20T00:13:47.687Z,1027.76
2019-04-20T00:14:41.323Z,1027.74
2019-04-20T00:15:39.360Z,1027.71
2019-04-20T00:16:39.929Z,1027.74
2019-04-20T00:17:45.898Z,1027.77
2019-04-20T00:18:46.603Z,1027.73
2019-04-20T00:19:44.091Z,1027.72
2019-04-20T00:20:40.733Z,1027.73
2019-04-20T00:21:47.023Z,1027.72
2019-04-20T00:22:46.094Z,1027.71
2019-04-20T00:23:42.059Z,1027.73
2019-04-20T00:24:41.092Z,1027.71
2019-04-20T00:25:52.213Z,1027.70
2019-04-20T00:27:59.618Z,1027.71
2019-04-20T00:28:52.210Z,1027.71
2019-04-20T00:29:56.167Z,1027.71
2019-04-20T00:31:04.423Z,1027.68
2019-04-20T00:31:52.318Z,1027.70
2019-04-20T00:32:53.368Z,1027.69
2019-04-20T00:33:54.953Z,1027.70
2019-04-20T00:34:42.350Z,1027.64
2019-04-20T00:35:40.249Z,1027.64
2019-04-20T00:36:41.091Z,1027.63
2019-04-20T00:37:40.262Z,1027.63
2019-04-20T00:38:47.794Z,1027.63
2019-04-20T00:39:40.566Z,1027.63
2019-04-20T00:40:41.233Z,1027.62
2019-04-20T00:43:26.472Z,1027.67
2019-04-20T00:44:26.060Z,1027.62
2019-04-20T00:46:30.463Z,1027.61
2019-04-20T00:47:34.841Z,1027.59
2019-04-20T00:49:41.921Z,1027.56
2019-04-20T00:50:45.868Z,1027.56
2019-04-20T00:52:50.911Z,1027.55
2019-04-20T00:53:38.004Z,1027.63
2019-04-20T00:55:36.089Z,1027.56
2019-04-20T00:56:37.002Z,1027.56
2019-04-20T00:58:52.179Z,1027.55
2019-04-20T00:59:59.290Z,1027.55
2019-04-20T01:02:03.664Z,1027.55
2019-04-20T01:02:54.140Z,1027.56
2019-04-20T01:07:56.325Z,1027.49
2019-04-20T01:08:53.021Z,1027.50
2019-04-20T01:10:59.095Z,1027.44
2019-04-20T01:11:56.591Z,1027.49
2019-04-20T01:13:55.256Z,1027.42
2019-04-20T01:14:54.000Z,1027.42
2019-04-20T01:16:58.827Z,1027.41
2019-04-20T01:17:53.108Z,1027.42
2019-04-20T01:19:57.164Z,1027.41
2019-04-20T01:21:04.670Z,1027.40
2019-04-20T01:23:07.611Z,1027.43
2019-04-20T01:24:04.936Z,1027.43
2019-04-20T01:26:10.859Z,1027.42
2019-04-20T01:27:10.941Z,1027.42
2019-04-20T01:29:23.780Z,1027.41
2019-04-20T01:30:18.156Z,1027.41
2019-04-20T01:32:23.343Z,1027.35
2019-04-20T01:33:27.916Z,1027.34
2019-04-20T01:35:36.168Z,1027.33
2019-04-20T01:36:36.891Z,1027.33
2019-04-20T01:38:35.572Z,1027.33
2019-04-20T01:39:28.332Z,1027.32
2019-04-20T01:41:26.527Z,1027.32
2019-04-20T01:42:25.591Z,1027.27
2019-04-20T01:44:27.025Z,1027.29
2019-04-20T01:45:27.082Z,1027.31
2019-04-20T01:47:29.943Z,1027.35
2019-04-20T01:48:30.097Z,1027.28
2019-04-20T01:50:31.217Z,1027.28
2019-04-20T01:51:32.012Z,1027.29
2019-04-20T01:53:44.206Z,1027.24
2019-04-20T01:54:52.729Z,1027.26
2019-04-20T01:56:47.606Z,1027.26
2019-04-20T01:57:56.348Z,1027.23
2019-04-20T01:59:52.258Z,1027.28
2019-04-20T02:00:42.046Z,1027.29
2019-04-20T02:02:49.717Z,1027.30
2019-04-20T02:03:46.708Z,1027.32
2019-04-20T02:05:54.751Z,1027.31
2019-04-20T02:06:53.107Z,1027.25
2019-04-20T02:08:58.228Z,1027.27
2019-04-20T02:09:56.853Z,1027.28
2019-04-20T02:11:55.702Z,1027.27
2019-04-20T02:12:59.809Z,1027.27
2019-04-20T02:15:04.004Z,1027.29
2019-04-20T02:16:10.244Z,1027.26
2019-04-20T02:18:17.603Z,1027.25
2019-04-20T02:19:19.601Z,1027.23
2019-04-20T02:21:26.030Z,1027.24
2019-04-20T02:22:22.955Z,1027.23
2019-04-20T02:24:04.064Z,1027.29
2019-04-20T02:25:01.629Z,1027.28
2019-04-20T02:27:04.407Z,1027.30
2019-04-20T02:28:22.841Z,1027.31
2019-04-20T02:30:39.627Z,1027.27
2019-04-20T02:31:59.439Z,1027.29
2019-04-20T02:34:47.740Z,1027.29
2019-04-20T02:39:51.514Z,1027.28
2019-04-20T02:40:57.410Z,1027.33
2019-04-20T02:42:57.581Z,1027.34
2019-04-20T02:44:06.393Z,1027.32
2019-04-20T02:46:17.109Z,1027.32
2019-04-20T02:47:07.515Z,1027.31
2019-04-20T02:49:12.932Z,1027.31
2019-04-20T02:50:09.202Z,1027.30
2019-04-20T02:55:09.360Z,1027.31
2019-04-20T02:56:04.925Z,1027.31
2019-04-20T02:58:00.700Z,1027.31
2019-04-20T02:59:26.979Z,1027.29
2019-04-20T03:00:58.413Z,1027.27
2019-04-20T03:01:54.790Z,1027.29
2019-04-20T03:03:49.142Z,1027.31
2019-04-20T03:04:47.854Z,1027.28
2019-04-20T03:07:04.248Z,1027.29
2019-04-20T03:08:02.600Z,1027.28
2019-04-20T03:10:05.527Z,1027.33
2019-04-20T03:11:18.063Z,1027.33
2019-04-20T03:13:14.176Z,1027.34
2019-04-20T03:14:09.550Z,1027.32
2019-04-20T03:16:18.783Z,1027.34
2019-04-20T03:17:22.628Z,1027.30
2019-04-20T03:19:16.105Z,1027.33
2019-04-20T03:20:23.311Z,1027.29
2019-04-20T03:22:34.979Z,1027.34
2019-04-20T03:23:29.764Z,1027.36
2019-04-20T03:25:30.073Z,1027.36
2019-04-20T03:26:28.748Z,1027.30
2019-04-20T03:28:34.595Z,1027.32
2019-04-20T03:29:36.994Z,1027.32
2019-04-20T03:32:03.948Z,1027.33
2019-04-20T03:33:04.362Z,1027.31
2019-04-20T03:34:55.593Z,1027.27
2019-04-20T03:35:37.093Z,1027.28
2019-04-20T03:37:42.768Z,1027.26
2019-04-20T03:38:38.316Z,1027.29
2019-04-20T03:40:36.390Z,1027.23
2019-04-20T03:41:28.238Z,1027.26
2019-04-20T03:43:24.498Z,1027.28
2019-04-20T03:44:26.398Z,1027.26
2019-04-20T03:46:37.589Z,1027.27
2019-04-20T03:47:38.589Z,1027.27
2019-04-20T03:49:54.945Z,1027.28
2019-04-20T03:50:54.989Z,1027.28
2019-04-20T03:52:59.523Z,1027.28
2019-04-20T03:53:55.205Z,1027.28
2019-04-20T03:57:10.322Z,1027.27
2019-04-20T03:58:54.758Z,1027.23
2019-04-20T04:00:04.894Z,1027.22
2019-04-20T04:02:28.545Z,1027.29
2019-04-20T04:03:16.584Z,1027.30
2019-04-20T04:05:08.936Z,1027.28
2019-04-20T04:06:05.232Z,1027.25
2019-04-20T04:08:06.168Z,1027.28
2019-04-20T04:09:10.303Z,1027.27
2019-04-20T04:11:18.888Z,1027.27
2019-04-20T04:12:12.188Z,1027.27
2019-04-20T04:13:52.924Z,1027.31
2019-04-20T04:14:53.690Z,1027.28
2019-04-20T04:16:59.655Z,1027.28
2019-04-20T04:18:04.388Z,1027.30
2019-04-20T04:20:07.109Z,1027.31
2019-04-20T04:21:07.997Z,1027.34
2019-04-20T04:23:27.052Z,1027.31
2019-04-20T04:24:17.230Z,1027.29
2019-04-20T04:26:26.176Z,1027.29
2019-04-20T04:27:28.467Z,1027.27
2019-04-20T04:29:35.627Z,1027.25
2019-04-20T04:30:26.344Z,1027.26
2019-04-20T04:33:00.500Z,1027.29
2019-04-20T04:33:53.176Z,1027.27
2019-04-20T04:35:33.176Z,1027.29
2019-04-20T04:36:40.452Z,1027.27
2019-04-20T04:38:51.096Z,1027.28
2019-04-20T04:39:49.261Z,1027.29
2019-04-20T04:41:55.915Z,1027.30
2019-04-20T04:42:53.166Z,1027.30
2019-04-20T04:44:34.353Z,1027.37
2019-04-20T04:45:26.525Z,1027.34
2019-04-20T04:47:26.381Z,1027.40
2019-04-20T04:48:32.125Z,1027.38
2019-04-20T04:50:31.846Z,1027.36
2019-04-20T04:51:42.608Z,1027.41
2019-04-20T04:53:46.106Z,1027.43
2019-04-20T04:54:44.504Z,1027.41
2019-04-20T04:56:39.681Z,1027.40
2019-04-20T04:57:39.006Z,1027.38
2019-04-20T04:59:42.663Z,1027.39
2019-04-20T05:00:42.694Z,1027.41
2019-04-20T05:02:53.830Z,1027.43
2019-04-20T05:04:10.563Z,1027.45
2019-04-20T05:06:06.668Z,1027.46
2019-04-20T05:07:02.562Z,1027.43
2019-04-20T05:09:00.229Z,1027.46
2019-04-20T05:09:54.918Z,1027.45
2019-04-20T05:12:05.475Z,1027.46
2019-04-20T05:12:58.877Z,1027.49
2019-04-20T05:15:10.201Z,1027.45
2019-04-20T05:16:16.878Z,1027.48
2019-04-20T05:18:34.675Z,1027.49
2019-04-20T05:19:31.002Z,1027.47
2019-04-20T05:21:31.306Z,1027.44
2019-04-20T05:22:35.176Z,1027.40
2019-04-20T05:24:22.651Z,1027.45
2019-04-20T05:25:24.128Z,1027.39
2019-04-20T05:27:32.122Z,1027.41
2019-04-20T05:28:20.811Z,1027.40
2019-04-20T05:30:12.034Z,1027.41
2019-04-20T05:31:13.457Z,1027.39
2019-04-20T05:33:25.615Z,1027.37
2019-04-20T05:34:40.092Z,1027.36
2019-04-20T05:36:41.633Z,1027.39
2019-04-20T05:38:03.082Z,1027.39
2019-04-20T05:39:45.793Z,1027.38
2019-04-20T05:40:49.004Z,1027.41
2019-04-20T05:42:48.896Z,1027.43
2019-04-20T05:43:43.147Z,1027.44
2019-04-20T05:45:45.362Z,1027.43
2019-04-20T05:46:56.598Z,1027.36
2019-04-20T05:48:45.782Z,1027.37
2019-04-20T05:49:41.471Z,1027.33
2019-04-20T05:51:47.548Z,1027.36
2019-04-20T05:52:59.740Z,1027.37
2019-04-20T05:54:49.342Z,1027.34
2019-04-20T05:55:46.491Z,1027.32
2019-04-20T05:57:51.009Z,1027.37
2019-04-20T05:58:49.403Z,1027.36
2019-04-20T06:00:55.401Z,1027.32
2019-04-20T06:01:59.138Z,1027.32
2019-04-20T06:03:56.810Z,1027.36
2019-04-20T06:05:06.947Z,1027.36
2019-04-20T06:06:59.780Z,1027.36
2019-04-20T06:08:00.747Z,1027.36
2019-04-20T06:09:05.670Z,1027.36
2019-04-20T06:10:05.874Z,1027.31
2019-04-20T06:11:02.380Z,1027.33
2019-04-20T06:12:17.880Z,1027.33
2019-04-20T06:12:55.495Z,1027.35
2019-04-20T06:13:53.742Z,1027.32
2019-04-20T06:14:52.282Z,1027.37
2019-04-20T06:15:55.242Z,1027.34
2019-04-20T06:17:01.934Z,1027.31
2019-04-20T06:17:59.649Z,1027.31
2019-04-20T06:19:06.819Z,1027.30
2019-04-20T06:20:01.672Z,1027.33
2019-04-20T06:21:02.381Z,1027.34
2019-04-20T06:22:03.373Z,1027.38
2019-04-20T06:23:05.946Z,1027.34
2019-04-20T06:24:07.001Z,1027.37
2019-04-20T06:25:09.987Z,1027.38
2019-04-20T06:26:17.196Z,1027.36
2019-04-20T06:27:14.627Z,1027.37
2019-04-20T06:27:59.324Z,1027.44
2019-04-20T06:28:51.976Z,1027.39
2019-04-20T06:29:55.797Z,1027.41
2019-04-20T06:30:52.568Z,1027.39
2019-04-20T06:32:08.553Z,1027.43
2019-04-20T06:32:59.243Z,1027.36
2019-04-20T06:35:04.432Z,1027.36
2019-04-20T06:36:17.994Z,1027.39
2019-04-20T06:36:57.345Z,1027.42
2019-04-20T06:38:10.715Z,1027.45
2019-04-20T06:40:07.811Z,1027.41
2019-04-20T06:41:16.106Z,1027.43
2019-04-20T06:43:05.265Z,1027.42
2019-04-20T06:44:02.716Z,1027.45
2019-04-20T06:45:04.548Z,1027.41
2019-04-20T06:46:05.680Z,1027.38
2019-04-20T06:47:16.261Z,1027.40
2019-04-20T06:48:06.284Z,1027.42
2019-04-20T06:49:12.140Z,1027.39
2019-04-20T06:50:04.262Z,1027.41
2019-04-20T06:50:57.196Z,1027.41
2019-04-20T06:52:13.155Z,1027.43
2019-04-20T06:53:01.522Z,1027.38
2019-04-20T06:53:53.643Z,1027.42
2019-04-20T06:55:01.672Z,1027.43
2019-04-20T06:56:06.690Z,1027.44
2019-04-20T06:56:59.930Z,1027.42
2019-04-20T06:58:02.798Z,1027.45
2019-04-20T06:59:03.777Z,1027.42
2019-04-20T06:59:59.820Z,1027.44
2019-04-20T07:01:04.153Z,1027.45
2019-04-20T07:02:14.229Z,1027.45
2019-04-20T07:03:01.871Z,1027.46
2019-04-20T07:04:22.431Z,1027.42
2019-04-20T07:04:59.465Z,1027.41
2019-04-20T07:06:24.543Z,1027.44
2019-04-20T07:08:16.953Z,1027.44
2019-04-20T07:09:06.589Z,1027.43
2019-04-20T07:10:08.590Z,1027.44
2019-04-20T07:11:05.866Z,1027.44
2019-04-20T07:11:59.841Z,1027.44
2019-04-20T07:12:58.033Z,1027.48
2019-04-20T07:13:50.580Z,1027.47
2019-04-20T07:14:54.142Z,1027.47
2019-04-20T07:15:54.476Z,1027.46
2019-04-20T07:17:10.946Z,1027.45
2019-04-20T07:18:06.151Z,1027.45
2019-04-20T07:19:00.745Z,1027.41
2019-04-20T07:20:00.449Z,1027.43
2019-04-20T07:21:04.312Z,1027.46
2019-04-20T07:23:11.379Z,1027.45
2019-04-20T07:24:03.592Z,1027.43
2019-04-20T07:25:01.153Z,1027.46
2019-04-20T07:26:12.783Z,1027.45
2019-04-20T07:27:00.617Z,1027.47
2019-04-20T07:28:05.864Z,1027.49
2019-04-20T07:29:07.051Z,1027.43
2019-04-20T07:30:04.031Z,1027.41
2019-04-20T07:31:05.703Z,1027.44
2019-04-20T07:32:00.158Z,1027.48
2019-04-20T07:33:04.204Z,1027.46
2019-04-20T07:34:05.022Z,1027.46
2019-04-20T07:35:03.375Z,1027.49
2019-04-20T07:36:04.118Z,1027.49
2019-04-20T07:37:25.880Z,1027.51
2019-04-20T07:38:20.653Z,1027.48
2019-04-20T07:39:07.861Z,1027.45
2019-04-20T07:40:07.151Z,1027.49
2019-04-20T07:41:01.290Z,1027.47
2019-04-20T07:42:08.124Z,1027.50
2019-04-20T07:42:59.200Z,1027.47
2019-04-20T07:44:11.849Z,1027.47
2019-04-20T07:45:09.510Z,1027.50
2019-04-20T07:46:01.817Z,1027.49
2019-04-20T07:47:07.503Z,1027.48
2019-04-20T07:48:09.020Z,1027.47
2019-04-20T07:50:02.349Z,1027.45
2019-04-20T07:50:56.847Z,1027.49
2019-04-20T07:51:45.764Z,1027.48
2019-04-20T07:52:51.376Z,1027.52
2019-04-20T07:54:10.590Z,1027.53
2019-04-20T07:56:05.150Z,1027.51
2019-04-20T07:57:03.867Z,1027.52
2019-04-20T07:57:57.860Z,1027.48
2019-04-20T07:58:51.147Z,1027.51
2019-04-20T08:00:00.353Z,1027.54
2019-04-20T08:01:07.915Z,1027.53
2019-04-20T08:02:08.152Z,1027.53
2019-04-20T08:03:11.908Z,1027.50
2019-04-20T08:04:05.997Z,1027.51
2019-04-20T08:05:03.432Z,1027.51
2019-04-20T08:05:52.874Z,1027.49
2019-04-20T08:06:50.073Z,1027.53
2019-04-20T08:07:54.633Z,1027.52
2019-04-20T08:08:57.085Z,1027.52
2019-04-20T08:09:51.305Z,1027.52
2019-04-20T08:11:01.348Z,1027.55
2019-04-20T08:12:14.153Z,1027.53
2019-04-20T08:13:14.256Z,1027.54
2019-04-20T08:14:07.359Z,1027.50
2019-04-20T08:15:13.414Z,1027.51
2019-04-20T08:16:11.594Z,1027.52
2019-04-20T08:17:14.425Z,1027.51
2019-04-20T08:17:59.852Z,1027.54
2019-04-20T08:18:59.711Z,1027.50
2019-04-20T08:20:02.756Z,1027.57
2019-04-20T08:21:06.454Z,1027.54
2019-04-20T08:22:14.097Z,1027.55
2019-04-20T08:23:06.209Z,1027.57
2019-04-20T08:24:03.839Z,1027.57
2019-04-20T08:24:55.209Z,1027.54
2019-04-20T08:25:54.361Z,1027.53
2019-04-20T08:26:50.277Z,1027.54
2019-04-20T08:27:44.515Z,1027.53
2019-04-20T08:28:51.957Z,1027.50
2019-04-20T08:29:58.172Z,1027.52
2019-04-20T08:31:00.852Z,1027.48
2019-04-20T08:32:04.565Z,1027.48
2019-04-20T08:32:58.247Z,1027.47
2019-04-20T08:34:15.148Z,1027.50
2019-04-20T08:35:05.666Z,1027.49
2019-04-20T08:36:04.345Z,1027.46
2019-04-20T08:37:01.035Z,1027.47
2019-04-20T08:38:32.483Z,1027.48
2019-04-20T08:39:19.966Z,1027.44
2019-04-20T08:40:07.636Z,1027.44
2019-04-20T08:41:05.654Z,1027.43
2019-04-20T08:42:06.381Z,1027.41
2019-04-20T08:43:11.190Z,1027.40
2019-04-20T08:44:18.727Z,1027.38
2019-04-20T08:45:08.137Z,1027.38
2019-04-20T08:46:05.590Z,1027.40
2019-04-20T08:47:12.078Z,1027.40
2019-04-20T08:48:12.850Z,1027.37
2019-04-20T08:49:03.230Z,1027.35
2019-04-20T08:50:09.483Z,1027.37
2019-04-20T08:51:06.159Z,1027.38
2019-04-20T08:52:23.857Z,1027.36
2019-04-20T08:53:15.935Z,1027.32
2019-04-20T08:54:03.314Z,1027.33
2019-04-20T08:55:05.396Z,1027.34
2019-04-20T08:55:55.368Z,1027.32
2019-04-20T08:56:51.729Z,1027.30
2019-04-20T08:57:44.638Z,1027.29
2019-04-20T08:58:46.021Z,1027.31
2019-04-20T08:59:48.239Z,1027.28
2019-04-20T09:00:49.952Z,1027.30
2019-04-20T09:01:44.782Z,1027.29
2019-04-20T09:02:50.128Z,1027.28
2019-04-20T09:03:56.483Z,1027.27
2019-04-20T09:04:52.898Z,1027.24
2019-04-20T09:05:56.592Z,1027.22
2019-04-20T09:06:58.522Z,1027.24
2019-04-20T09:07:56.547Z,1027.25
2019-04-20T09:08:56.560Z,1027.28
2019-04-20T09:10:10.161Z,1027.27
2019-04-20T09:11:02.713Z,1027.28
2019-04-20T09:12:03.685Z,1027.19
2019-04-20T09:12:59.658Z,1027.19
2019-04-20T09:13:50.119Z,1027.19
2019-04-20T09:14:46.243Z,1027.19
2019-04-20T09:15:45.230Z,1027.19
2019-04-20T09:16:51.778Z,1027.20
2019-04-20T09:17:51.782Z,1027.17
2019-04-20T09:18:52.425Z,1027.18
2019-04-20T09:19:54.872Z,1027.17
2019-04-20T09:20:52.967Z,1027.17
2019-04-20T09:21:53.046Z,1027.14
2019-04-20T09:23:02.485Z,1027.16
2019-04-20T09:25:16.427Z,1027.15
2019-04-20T09:26:06.002Z,1027.16
2019-04-20T09:27:01.129Z,1027.14
2019-04-20T09:27:52.362Z,1027.12
2019-04-20T09:28:59.034Z,1027.06
2019-04-20T09:30:06.212Z,1027.06
2019-04-20T09:30:53.253Z,1027.06
2019-04-20T09:32:00.035Z,1027.06
2019-04-20T09:33:08.060Z,1027.01
2019-04-20T09:34:03.083Z,1027.04
2019-04-20T09:35:07.796Z,1027.01
2019-04-20T09:36:03.311Z,1027.03
2019-04-20T09:37:04.532Z,1027.04
2019-04-20T09:38:06.051Z,1026.97
2019-04-20T09:38:56.738Z,1026.97
2019-04-20T09:40:11.324Z,1026.94
2019-04-20T09:41:01.145Z,1026.94
2019-04-20T09:42:00.044Z,1026.96
2019-04-20T09:42:46.199Z,1026.94
2019-04-20T09:43:47.388Z,1026.95
2019-04-20T09:44:51.151Z,1026.98
2019-04-20T09:45:50.291Z,1026.98
2019-04-20T09:46:51.313Z,1026.96
2019-04-20T09:47:50.227Z,1026.97
2019-04-20T09:48:53.622Z,1027.00
2019-04-20T09:50:00.152Z,1026.97
2019-04-20T09:51:02.271Z,1026.95
2019-04-20T09:52:01.717Z,1026.95
2019-04-20T09:53:02.455Z,1026.96
2019-04-20T09:53:58.340Z,1026.94
2019-04-20T09:55:03.330Z,1026.92
2019-04-20T09:56:01.924Z,1026.95
2019-04-20T09:57:09.466Z,1026.91
2019-04-20T09:58:04.078Z,1026.97
2019-04-20T09:59:09.559Z,1026.93
2019-04-20T10:00:04.275Z,1026.93
2019-04-20T10:01:01.798Z,1026.90
2019-04-20T10:01:54.664Z,1026.89
2019-04-20T10:02:48.350Z,1026.91
2019-04-20T10:03:47.129Z,1026.89
2019-04-20T10:04:47.345Z,1026.86
2019-04-20T10:05:47.583Z,1026.90
2019-04-20T10:06:47.641Z,1026.86
2019-04-20T10:07:50.361Z,1026.85
2019-04-20T10:08:52.471Z,1026.88
2019-04-20T10:09:48.640Z,1026.89
2019-04-20T10:10:48.991Z,1026.87
2019-04-20T10:11:48.761Z,1026.81
2019-04-20T10:12:47.957Z,1026.84
2019-04-20T10:13:48.135Z,1026.86
2019-04-20T10:14:47.387Z,1026.87
2019-04-20T10:15:47.825Z,1026.85
2019-04-20T10:16:47.485Z,1026.85
2019-04-20T10:17:47.800Z,1026.84
2019-04-20T10:18:52.004Z,1026.83
2019-04-20T10:19:48.298Z,1026.85
2019-04-20T10:20:47.617Z,1026.84
2019-04-20T10:21:48.670Z,1026.81
2019-04-20T10:22:48.826Z,1026.81
2019-04-20T10:23:48.275Z,1026.79
2019-04-20T10:24:50.330Z,1026.76
2019-04-20T10:25:48.775Z,1026.76
2019-04-20T10:26:48.267Z,1026.72
2019-04-20T10:27:47.883Z,1026.69
2019-04-20T10:28:47.920Z,1026.68
2019-04-20T10:29:49.254Z,1026.67
2019-04-20T10:30:48.406Z,1026.64
2019-04-20T10:31:53.217Z,1026.65
2019-04-20T10:32:50.868Z,1026.69
2019-04-20T10:33:49.275Z,1026.63
2019-04-20T10:34:48.558Z,1026.64
2019-04-20T10:35:48.190Z,1026.64
2019-04-20T10:36:48.227Z,1026.63
2019-04-20T10:37:49.404Z,1026.59
2019-04-20T10:38:48.543Z,1026.59
2019-04-20T10:39:48.728Z,1026.64
2019-04-20T10:40:58.457Z,1026.59
2019-04-20T10:41:52.615Z,1026.59
2019-04-20T10:42:48.459Z,1026.61
2019-04-20T10:43:48.989Z,1026.64
2019-04-20T10:44:48.535Z,1026.62
2019-04-20T10:45:48.832Z,1026.59
2019-04-20T10:46:49.155Z,1026.57
2019-04-20T10:47:48.653Z,1026.54
2019-04-20T10:48:51.680Z,1026.57
2019-04-20T10:49:49.285Z,1026.62
2019-04-20T10:50:49.314Z,1026.57
2019-04-20T10:51:49.544Z,1026.58
2019-04-20T10:52:49.964Z,1026.54
2019-04-20T10:53:48.888Z,1026.57
2019-04-20T10:54:50.277Z,1026.59
2019-04-20T10:55:49.486Z,1026.54
2019-04-20T10:56:49.783Z,1026.62
2019-04-20T10:57:49.388Z,1026.61
2019-04-20T10:58:49.648Z,1026.63
2019-04-20T10:59:49.848Z,1026.62
2019-04-20T11:00:50.051Z,1026.60
2019-04-20T11:01:49.725Z,1026.61
2019-04-20T11:02:50.839Z,1026.58
2019-04-20T11:03:50.348Z,1026.57
2019-04-20T11:04:50.522Z,1026.57
2019-04-20T11:05:50.826Z,1026.55
2019-04-20T11:06:50.337Z,1026.52
2019-04-20T11:07:50.511Z,1026.54
2019-04-20T11:08:50.701Z,1026.49
2019-04-20T11:10:02.265Z,1026.50
2019-04-20T11:11:00.259Z,1026.49
2019-04-20T11:11:50.312Z,1026.48
2019-04-20T11:12:50.530Z,1026.48
2019-04-20T11:13:51.072Z,1026.48
2019-04-20T11:14:50.202Z,1026.46
2019-04-20T11:15:50.561Z,1026.43
2019-04-20T11:16:50.808Z,1026.45
2019-04-20T11:17:51.269Z,1026.49
2019-04-20T11:18:49.873Z,1026.44
2019-04-20T11:19:49.911Z,1026.42
2019-04-20T11:20:51.077Z,1026.46
2019-04-20T11:21:50.305Z,1026.47
2019-04-20T11:22:50.529Z,1026.45
2019-04-20T11:23:50.075Z,1026.44
2019-04-20T11:24:50.273Z,1026.41
2019-04-20T11:25:50.503Z,1026.41
2019-04-20T11:26:50.192Z,1026.40
2019-04-20T11:27:50.231Z,1026.38
2019-04-20T11:28:50.422Z,1026.39
2019-04-20T11:29:50.309Z,1026.42
2019-04-20T11:30:50.351Z,1026.36
2019-04-20T11:31:53.072Z,1026.38
2019-04-20T11:32:51.812Z,1026.38
2019-04-20T11:33:50.477Z,1026.38
2019-04-20T11:34:51.241Z,1026.35
2019-04-20T11:35:51.545Z,1026.33
2019-04-20T11:36:50.924Z,1026.30
2019-04-20T11:37:51.254Z,1026.30
2019-04-20T11:38:51.147Z,1026.28
2019-04-20T11:39:50.830Z,1026.27
2019-04-20T11:41:02.726Z,1026.29
2019-04-20T11:41:51.731Z,1026.27
2019-04-20T11:42:50.842Z,1026.28
2019-04-20T11:43:51.557Z,1026.25
2019-04-20T11:44:50.910Z,1026.30
2019-04-20T11:45:51.133Z,1026.27
2019-04-20T11:46:52.329Z,1026.25
2019-04-20T11:47:51.579Z,1026.23
2019-04-20T11:48:51.805Z,1026.23
2019-04-20T11:49:51.348Z,1026.22
2019-04-20T11:50:51.642Z,1026.19
2019-04-20T11:51:51.852Z,1026.16
2019-04-20T11:52:51.571Z,1026.21
2019-04-20T11:53:52.238Z,1026.19
2019-04-20T11:54:52.513Z,1026.15
2019-04-20T11:55:52.147Z,1026.16
2019-04-20T11:56:51.395Z,1026.14
2019-04-20T11:57:51.434Z,1026.15
2019-04-20T11:58:51.481Z,1026.16
2019-04-20T11:59:52.892Z,1026.19
2019-04-20T12:01:00.750Z,1026.20
2019-04-20T12:01:57.506Z,1026.17
2019-04-20T12:02:54.227Z,1026.17
2019-04-20T12:04:00.357Z,1026.12
2019-04-20T12:05:06.281Z,1026.14
2019-04-20T12:05:55.752Z,1026.14
2019-04-20T12:06:52.866Z,1026.09
2019-04-20T12:07:53.054Z,1026.05
2019-04-20T12:08:52.579Z,1026.03
2019-04-20T12:09:51.919Z,1026.02
2019-04-20T12:10:56.479Z,1026.01
2019-04-20T12:12:02.074Z,1026.00
2019-04-20T12:12:55.432Z,1026.02
2019-04-20T12:13:52.291Z,1026.02
2019-04-20T12:14:52.590Z,1026.01
2019-04-20T12:15:52.164Z,1026.00
2019-04-20T12:16:53.386Z,1025.96
2019-04-20T12:17:53.554Z,1025.99
2019-04-20T12:18:52.550Z,1026.01
2019-04-20T12:19:53.158Z,1025.99
2019-04-20T12:20:52.647Z,1025.99
2019-04-20T12:21:53.813Z,1025.98
2019-04-20T12:22:52.640Z,1025.96
2019-04-20T12:23:52.488Z,1025.94
2019-04-20T12:24:52.529Z,1025.91
2019-04-20T12:25:52.569Z,1025.91
2019-04-20T12:26:52.611Z,1025.88
2019-04-20T12:27:57.079Z,1025.87
2019-04-20T12:28:53.785Z,1025.85
2019-04-20T12:29:53.959Z,1025.84
2019-04-20T12:30:55.974Z,1025.81
2019-04-20T12:31:57.394Z,1025.80
2019-04-20T12:32:57.527Z,1025.77
2019-04-20T12:33:52.895Z,1025.74
2019-04-20T12:34:54.051Z,1025.77
2019-04-20T12:35:54.199Z,1025.74
2019-04-20T12:36:53.320Z,1025.72
2019-04-20T12:37:53.057Z,1025.74
2019-04-20T12:38:53.209Z,1025.75
2019-04-20T12:39:53.324Z,1025.74
2019-04-20T12:40:53.178Z,1025.74
2019-04-20T12:41:57.967Z,1025.68
2019-04-20T12:42:53.269Z,1025.70
2019-04-20T12:43:53.889Z,1025.67
2019-04-20T12:44:53.465Z,1025.65
2019-04-20T12:45:53.815Z,1025.61
2019-04-20T12:46:53.932Z,1025.62
2019-04-20T12:47:53.527Z,1025.54
2019-04-20T12:48:53.586Z,1025.56
2019-04-20T12:49:53.788Z,1025.56
2019-04-20T12:50:53.586Z,1025.50
2019-04-20T12:51:58.050Z,1025.52
2019-04-20T12:52:54.749Z,1025.53
2019-04-20T12:53:53.708Z,1025.52
2019-04-20T12:54:54.543Z,1025.45
2019-04-20T12:55:54.789Z,1025.50
2019-04-20T12:56:53.827Z,1025.48
2019-04-20T12:57:54.517Z,1025.50
2019-04-20T12:58:53.912Z,1025.41
2019-04-20T12:59:54.154Z,1025.47
2019-04-20T13:00:54.344Z,1025.39
2019-04-20T13:01:55.182Z,1025.46
2019-04-20T13:02:54.073Z,1025.39
2019-04-20T13:03:55.308Z,1025.42
2019-04-20T13:04:55.267Z,1025.35
2019-04-20T13:05:54.369Z,1025.30
2019-04-20T13:06:55.274Z,1025.34
2019-04-20T13:07:58.946Z,1025.30
2019-04-20T13:08:58.430Z,1025.31
2019-04-20T13:09:54.808Z,1025.29
2019-04-20T13:10:54.871Z,1025.28
2019-04-20T13:11:59.369Z,1025.27
2019-04-20T13:12:54.503Z,1025.25
2019-04-20T13:13:54.613Z,1025.23
2019-04-20T13:14:54.562Z,1025.20
2019-04-20T13:15:54.604Z,1025.18
2019-04-20T13:18:37.423Z,1025.16
2019-04-20T13:21:02.013Z,1025.16
2019-04-20T13:22:01.520Z,1025.14
2019-04-20T13:23:56.241Z,1025.19
2019-04-20T13:24:54.975Z,1025.15
2019-04-20T13:26:58.718Z,1025.12
2019-04-20T13:27:58.938Z,1025.10
2019-04-20T13:30:03.225Z,1025.12
2019-04-20T13:31:03.853Z,1025.09
2019-04-20T13:33:07.987Z,1025.12
2019-04-20T13:34:07.609Z,1025.13
2019-04-20T13:36:12.378Z,1025.11
2019-04-20T13:37:10.868Z,1025.11
2019-04-20T13:39:14.927Z,1025.10
2019-04-20T13:40:15.665Z,1025.09
2019-04-20T13:42:24.374Z,1025.00
2019-04-20T13:43:19.719Z,1025.00
2019-04-20T13:45:23.096Z,1024.99
2019-04-20T13:46:23.128Z,1024.99
2019-04-20T13:48:27.181Z,1024.94
2019-04-20T13:49:27.216Z,1024.94
2019-04-20T13:51:32.748Z,1024.92
2019-04-20T13:52:31.303Z,1024.92
2019-04-20T13:54:27.905Z,1024.96
2019-04-20T13:55:25.427Z,1024.95
2019-04-20T13:57:28.366Z,1024.91
2019-04-20T13:58:29.748Z,1024.91
2019-04-20T14:00:32.655Z,1024.85
2019-04-20T14:01:32.681Z,1024.85
2019-04-20T14:03:36.671Z,1024.84
2019-04-20T14:04:36.926Z,1024.82
2019-04-20T14:06:41.472Z,1024.76
2019-04-20T14:07:41.749Z,1024.74
2019-04-20T14:09:45.661Z,1024.71
2019-04-20T14:10:45.083Z,1024.68
2019-04-20T14:12:57.278Z,1024.64
2019-04-20T14:13:54.856Z,1024.65
2019-04-20T14:15:53.402Z,1024.63
2019-04-20T14:16:53.038Z,1024.61
2019-04-20T14:18:56.969Z,1024.60
2019-04-20T14:19:57.207Z,1024.60
2019-04-20T14:22:02.134Z,1024.60
2019-04-20T14:23:01.083Z,1024.59
2019-04-20T14:25:05.176Z,1024.54
2019-04-20T14:26:05.167Z,1024.52
2019-04-20T14:28:09.221Z,1024.48
2019-04-20T14:29:10.319Z,1024.47
2019-04-20T14:31:14.089Z,1024.49
2019-04-20T14:32:14.645Z,1024.41
2019-04-20T14:34:06.816Z,1024.41
2019-04-20T14:35:07.177Z,1024.40
2019-04-20T14:37:11.004Z,1024.46
2019-04-20T14:38:10.438Z,1024.44
2019-04-20T14:40:14.687Z,1024.42
2019-04-20T14:41:16.040Z,1024.37
2019-04-20T14:43:19.374Z,1024.39
2019-04-20T14:44:19.627Z,1024.33
2019-04-20T14:46:23.046Z,1024.30
2019-04-20T14:47:23.629Z,1024.31
2019-04-20T14:49:26.781Z,1024.30